PWSweather.com
Personal Weather Stations
Station Observations
COONRAPIDS
Minneapolis, MN 55433

Minneapolis, MN 55433

Lat: 45.187721, Lon: -93.36828

Elevation: 898

Station Type: Davis Vantage Pro 2

High Low Average
Temperature 31.5°F-0.3°C 17.1°F-8.3°C 27.4°F-2.6°C
Dew Point 27.0°F-2.8°C 9.0°F-12.8°C 22.1°F-5.5°C
Winds 5.8 mph 9.3 kmh Calm Calm 2.0 mph WSW3.2 kmh WSW
Wind Gusts 12.7 mph20.4 kmh -- 4.0 mph6.4 kmh
Humidity 87% 68% 80%
Pressure 30.23 in1023.7 mb 29.94 in1013.9 mb -
Precipitation 0.00 in0.0 mm - -
Hour Temp Dew Point Humidity Winds Wind Gusts Pressure Precip Precip Rate Daily Precip Total
12:00 AM 27.7°F-2.4°C 22.0°F-5.6°C 79% Calm Calm -- 30.24 in1024.0 mb - 0.00 in0.0 mm 0.00 in0.0 mm
12:10 AM 27.7°F-2.4°C 22.1°F-5.5°C 79% Calm Calm -- 30.24 in1024.0 mb - 0.00 in0.0 mm 0.00 in0.0 mm
12:20 AM 27.7°F-2.4°C 22.0°F-5.6°C 79% Calm Calm -- 30.24 in1024.0 mb - 0.00 in0.0 mm 0.00 in0.0 mm
12:30 AM 27.7°F-2.4°C 22.0°F-5.6°C 79% Calm Calm -- 30.24 in1024.0 mb - 0.00 in0.0 mm 0.00 in0.0 mm
12:40 AM 27.7°F-2.4°C 22.0°F-5.6°C 79% Calm Calm -- 30.24 in1024.0 mb - 0.00 in0.0 mm 0.00 in0.0 mm
12:50 AM 27.6°F-2.4°C 22.0°F-5.6°C 79% Calm Calm -- 30.23 in1023.7 mb - 0.00 in0.0 mm 0.00 in0.0 mm
01:00 AM 27.7°F-2.4°C 22.0°F-5.6°C 79% Calm Calm -- 30.23 in1023.7 mb - 0.00 in0.0 mm 0.00 in0.0 mm
01:10 AM 27.6°F-2.4°C 21.9°F-5.6°C 79% Calm Calm -- 30.23 in1023.7 mb - 0.00 in0.0 mm 0.00 in0.0 mm
01:20 AM 27.6°F-2.4°C 22.2°F-5.4°C 80% Calm Calm -- 30.22 in1023.4 mb - 0.00 in0.0 mm 0.00 in0.0 mm
01:30 AM 27.6°F-2.4°C 22.2°F-5.4°C 80% Calm Calm -- 30.21 in1023.0 mb - 0.00 in0.0 mm 0.00 in0.0 mm
01:40 AM 27.6°F-2.4°C 22.2°F-5.4°C 80% Calm Calm -- 30.20 in1022.7 mb - 0.00 in0.0 mm 0.00 in0.0 mm
01:50 AM 27.6°F-2.4°C 22.2°F-5.4°C 80% Calm Calm -- 30.20 in1022.7 mb - 0.00 in0.0 mm 0.00 in0.0 mm
02:00 AM 27.6°F-2.4°C 22.2°F-5.4°C 80% Calm Calm -- 30.20 in1022.7 mb - 0.00 in0.0 mm 0.00 in0.0 mm
02:10 AM 27.6°F-2.4°C 22.2°F-5.4°C 80% Calm Calm -- 30.20 in1022.7 mb - 0.00 in0.0 mm 0.00 in0.0 mm
02:20 AM 27.6°F-2.4°C 22.2°F-5.4°C 80% Calm Calm -- 30.20 in1022.7 mb - 0.00 in0.0 mm 0.00 in0.0 mm
02:30 AM 27.6°F-2.4°C 22.2°F-5.4°C 80% Calm Calm -- 30.19 in1022.4 mb - 0.00 in0.0 mm 0.00 in0.0 mm
02:40 AM 27.6°F-2.4°C 22.2°F-5.4°C 80% Calm Calm -- 30.19 in1022.4 mb - 0.00 in0.0 mm 0.00 in0.0 mm
02:50 AM 27.6°F-2.4°C 22.2°F-5.4°C 80% Calm Calm -- 30.19 in1022.4 mb - 0.00 in0.0 mm 0.00 in0.0 mm
03:00 AM 27.6°F-2.4°C 22.2°F-5.4°C 80% 1.2 mph WSW1.9 kmh WSW 3.5 mph5.6 kmh 30.19 in1022.4 mb - 0.00 in0.0 mm 0.00 in0.0 mm
03:10 AM 27.6°F-2.4°C 22.5°F-5.3°C 81% Calm Calm -- 30.18 in1022.0 mb - 0.00 in0.0 mm 0.00 in0.0 mm
03:20 AM 27.6°F-2.4°C 22.5°F-5.3°C 81% Calm Calm -- 30.18 in1022.0 mb - 0.00 in0.0 mm 0.00 in0.0 mm
03:30 AM 27.6°F-2.4°C 22.5°F-5.3°C 81% Calm Calm -- 30.18 in1022.0 mb - 0.00 in0.0 mm 0.00 in0.0 mm
03:40 AM 27.6°F-2.4°C 22.5°F-5.3°C 81% Calm Calm -- 30.18 in1022.0 mb - 0.00 in0.0 mm 0.00 in0.0 mm
03:50 AM 27.6°F-2.4°C 22.5°F-5.3°C 81% Calm Calm -- 30.18 in1022.0 mb - 0.00 in0.0 mm 0.00 in0.0 mm
04:00 AM 27.7°F-2.4°C 23.0°F-5.0°C 82% Calm Calm -- 30.17 in1021.7 mb - 0.00 in0.0 mm 0.00 in0.0 mm
04:10 AM 27.9°F-2.3°C 23.1°F-4.9°C 82% 1.2 mph SW1.9 kmh SW 2.3 mph3.7 kmh 30.17 in1021.7 mb - 0.00 in0.0 mm 0.00 in0.0 mm
04:20 AM 28.0°F-2.2°C 23.2°F-4.9°C 82% Calm Calm -- 30.17 in1021.7 mb - 0.00 in0.0 mm 0.00 in0.0 mm
04:30 AM 28.0°F-2.2°C 23.2°F-4.9°C 82% 2.3 mph S3.7 kmh S 3.5 mph5.6 kmh 30.16 in1021.3 mb - 0.00 in0.0 mm 0.00 in0.0 mm
04:40 AM 28.0°F-2.2°C 23.2°F-4.9°C 82% Calm Calm -- 30.16 in1021.3 mb - 0.00 in0.0 mm 0.00 in0.0 mm
04:50 AM 28.0°F-2.2°C 22.9°F-5.1°C 81% 1.2 mph WSW1.9 kmh WSW 3.5 mph5.6 kmh 30.15 in1021.0 mb - 0.00 in0.0 mm 0.00 in0.0 mm
05:00 AM 28.0°F-2.2°C 23.0°F-5.0°C 81% 2.3 mph S3.7 kmh S 6.9 mph11.1 kmh 30.15 in1021.0 mb - 0.00 in0.0 mm 0.00 in0.0 mm
05:10 AM 28.0°F-2.2°C 22.9°F-5.1°C 81% 1.2 mph SW1.9 kmh SW 3.5 mph5.6 kmh 30.14 in1020.7 mb - 0.00 in0.0 mm 0.00 in0.0 mm
05:20 AM 28.0°F-2.2°C 22.9°F-5.1°C 81% Calm Calm -- 30.14 in1020.7 mb - 0.00 in0.0 mm 0.00 in0.0 mm
05:30 AM 28.0°F-2.2°C 22.9°F-5.1°C 81% 2.3 mph S3.7 kmh S 3.5 mph5.6 kmh 30.14 in1020.7 mb - 0.00 in0.0 mm 0.00 in0.0 mm
05:40 AM 27.9°F-2.3°C 22.8°F-5.1°C 81% 1.2 mph SW1.9 kmh SW 3.5 mph5.6 kmh 30.14 in1020.7 mb - 0.00 in0.0 mm 0.00 in0.0 mm
05:50 AM 27.8°F-2.3°C 22.7°F-5.2°C 81% 2.3 mph S3.7 kmh S 3.5 mph5.6 kmh 30.13 in1020.3 mb - 0.00 in0.0 mm 0.00 in0.0 mm
06:00 AM 27.7°F-2.4°C 22.6°F-5.2°C 81% 1.2 mph SW1.9 kmh SW 2.3 mph3.7 kmh 30.13 in1020.3 mb - 0.00 in0.0 mm 0.00 in0.0 mm
06:10 AM 27.6°F-2.4°C 22.9°F-5.1°C 82% 4.6 mph S7.4 kmh S 5.8 mph9.3 kmh 30.13 in1020.3 mb - 0.00 in0.0 mm 0.00 in0.0 mm
06:20 AM 27.6°F-2.4°C 22.8°F-5.1°C 82% 1.2 mph S1.9 kmh S 3.5 mph5.6 kmh 30.13 in1020.3 mb - 0.00 in0.0 mm 0.00 in0.0 mm
06:30 AM 27.4°F-2.6°C 22.6°F-5.2°C 82% 3.5 mph S5.6 kmh S 5.8 mph9.3 kmh 30.12 in1020.0 mb - 0.00 in0.0 mm 0.00 in0.0 mm
06:40 AM 27.0°F-2.8°C 22.5°F-5.3°C 83% 1.2 mph SSW1.9 kmh SSW 4.6 mph7.4 kmh 30.11 in1019.6 mb - 0.00 in0.0 mm 0.00 in0.0 mm
06:50 AM 26.9°F-2.8°C 22.7°F-5.2°C 84% 3.5 mph S5.6 kmh S 4.6 mph7.4 kmh 30.11 in1019.6 mb - 0.00 in0.0 mm 0.00 in0.0 mm
07:00 AM 26.8°F-2.9°C 22.6°F-5.2°C 84% 1.2 mph SSW1.9 kmh SSW 2.3 mph3.7 kmh 30.11 in1019.6 mb - 0.00 in0.0 mm 0.00 in0.0 mm
07:10 AM 26.7°F-2.9°C 22.8°F-5.1°C 85% 2.3 mph S3.7 kmh S 3.5 mph5.6 kmh 30.11 in1019.6 mb - 0.00 in0.0 mm 0.00 in0.0 mm
07:20 AM 26.7°F-2.9°C 22.8°F-5.1°C 85% Calm Calm -- 30.10 in1019.3 mb - 0.00 in0.0 mm 0.00 in0.0 mm
07:30 AM 26.7°F-2.9°C 22.8°F-5.1°C 85% Calm Calm -- 30.10 in1019.3 mb - 0.00 in0.0 mm 0.00 in0.0 mm
07:40 AM 26.7°F-2.9°C 22.8°F-5.1°C 85% Calm Calm -- 30.09 in1019.0 mb - 0.00 in0.0 mm 0.00 in0.0 mm
07:50 AM 26.4°F-3.1°C 22.5°F-5.3°C 85% 1.2 mph SW1.9 kmh SW 3.5 mph5.6 kmh 30.09 in1019.0 mb - 0.00 in0.0 mm 0.00 in0.0 mm
08:00 AM 26.3°F-3.2°C 22.4°F-5.3°C 85% 2.3 mph SW3.7 kmh SW 3.5 mph5.6 kmh 30.08 in1018.6 mb - 0.00 in0.0 mm 0.00 in0.0 mm
08:10 AM 26.3°F-3.2°C 22.4°F-5.3°C 85% 2.3 mph SW3.7 kmh SW 4.6 mph7.4 kmh 30.09 in1019.0 mb - 0.00 in0.0 mm 0.00 in0.0 mm
08:20 AM 26.3°F-3.2°C 22.4°F-5.3°C 85% Calm Calm -- 30.08 in1018.6 mb - 0.00 in0.0 mm 0.00 in0.0 mm
08:30 AM 26.3°F-3.2°C 22.7°F-5.2°C 86% Calm Calm 3.5 mph5.6 kmh 30.07 in1018.3 mb - 0.00 in0.0 mm 0.00 in0.0 mm
08:40 AM 26.4°F-3.1°C 22.8°F-5.1°C 86% 1.2 mph SW1.9 kmh SW 1.2 mph1.9 kmh 30.07 in1018.3 mb - 0.00 in0.0 mm 0.00 in0.0 mm
08:50 AM 26.5°F-3.1°C 22.9°F-5.1°C 86% Calm Calm 4.6 mph7.4 kmh 30.07 in1018.3 mb - 0.00 in0.0 mm 0.00 in0.0 mm
09:00 AM 26.6°F-3.0°C 23.0°F-5.0°C 86% 3.5 mph SSW5.6 kmh SSW 5.8 mph9.3 kmh 30.05 in1017.6 mb - 0.00 in0.0 mm 0.00 in0.0 mm
09:10 AM 26.5°F-3.1°C 23.1°F-4.9°C 87% 3.5 mph SSW5.6 kmh SSW 6.9 mph11.1 kmh 30.06 in1017.9 mb - 0.00 in0.0 mm 0.00 in0.0 mm
09:20 AM 26.3°F-3.2°C 23.0°F-5.0°C 87% 1.2 mph S1.9 kmh S 3.5 mph5.6 kmh 30.06 in1017.9 mb - 0.00 in0.0 mm 0.00 in0.0 mm
09:30 AM 26.2°F-3.2°C 22.9°F-5.1°C 87% 2.3 mph S3.7 kmh S 4.6 mph7.4 kmh 30.06 in1017.9 mb - 0.00 in0.0 mm 0.00 in0.0 mm
09:40 AM 26.1°F-3.3°C 22.8°F-5.1°C 87% 5.8 mph S9.3 kmh S 8.1 mph13.0 kmh 30.05 in1017.6 mb - 0.00 in0.0 mm 0.00 in0.0 mm
09:50 AM 26.2°F-3.2°C 22.9°F-5.1°C 87% 3.5 mph SSW5.6 kmh SSW 6.9 mph11.1 kmh 30.05 in1017.6 mb - 0.00 in0.0 mm 0.00 in0.0 mm
10:00 AM 26.3°F-3.2°C 23.0°F-5.0°C 87% 4.6 mph SW7.4 kmh SW 11.5 mph18.5 kmh 30.05 in1017.6 mb - 0.00 in0.0 mm 0.00 in0.0 mm
10:10 AM 26.4°F-3.1°C 23.1°F-4.9°C 87% Calm Calm -- 30.05 in1017.6 mb - 0.00 in0.0 mm 0.00 in0.0 mm
10:20 AM 26.6°F-3.0°C 23.3°F-4.8°C 87% 4.6 mph SW7.4 kmh SW 5.8 mph9.3 kmh 30.05 in1017.6 mb - 0.00 in0.0 mm 0.00 in0.0 mm
10:30 AM 26.6°F-3.0°C 23.3°F-4.8°C 87% 1.2 mph SW1.9 kmh SW 3.5 mph5.6 kmh 30.05 in1017.6 mb - 0.00 in0.0 mm 0.00 in0.0 mm
10:40 AM 26.8°F-2.9°C 23.4°F-4.8°C 87% 2.3 mph SW3.7 kmh SW 4.6 mph7.4 kmh 30.05 in1017.6 mb - 0.00 in0.0 mm 0.00 in0.0 mm
10:50 AM 26.8°F-2.9°C 23.4°F-4.8°C 87% 2.3 mph WSW3.7 kmh WSW 4.6 mph7.4 kmh 30.04 in1017.3 mb - 0.00 in0.0 mm 0.00 in0.0 mm
11:00 AM 26.9°F-2.8°C 23.3°F-4.8°C 86% 2.3 mph SW3.7 kmh SW 3.5 mph5.6 kmh 30.03 in1016.9 mb - 0.00 in0.0 mm 0.00 in0.0 mm
11:10 AM 27.0°F-2.8°C 23.4°F-4.8°C 86% Calm Calm 2.3 mph3.7 kmh 30.03 in1016.9 mb - 0.00 in0.0 mm 0.00 in0.0 mm
11:20 AM 27.2°F-2.7°C 23.6°F-4.7°C 86% Calm Calm 1.2 mph1.9 kmh 30.02 in1016.6 mb - 0.00 in0.0 mm 0.00 in0.0 mm
11:30 AM 27.4°F-2.6°C 23.8°F-4.6°C 86% Calm Calm 3.5 mph5.6 kmh 30.02 in1016.6 mb - 0.00 in0.0 mm 0.00 in0.0 mm
11:40 AM 27.6°F-2.4°C 24.0°F-4.4°C 86% 1.2 mph SSW1.9 kmh SSW 2.3 mph3.7 kmh 30.01 in1016.3 mb - 0.00 in0.0 mm 0.00 in0.0 mm
11:50 AM 27.8°F-2.3°C 24.2°F-4.3°C 86% 1.2 mph SW1.9 kmh SW 5.8 mph9.3 kmh 30.02 in1016.6 mb - 0.00 in0.0 mm 0.00 in0.0 mm
12:00 PM 28.0°F-2.2°C 24.6°F-4.1°C 87% 3.5 mph S5.6 kmh S 4.6 mph7.4 kmh 30.00 in1015.9 mb - 0.00 in0.0 mm 0.00 in0.0 mm
12:10 PM 28.1°F-2.2°C 24.8°F-4.0°C 87% 1.2 mph S1.9 kmh S 6.9 mph11.1 kmh 30.00 in1015.9 mb - 0.00 in0.0 mm 0.00 in0.0 mm
12:20 PM 28.3°F-2.1°C 24.9°F-3.9°C 87% 2.3 mph SSW3.7 kmh SSW 5.8 mph9.3 kmh 29.99 in1015.6 mb - 0.00 in0.0 mm 0.00 in0.0 mm
12:30 PM 28.5°F-1.9°C 25.1°F-3.8°C 87% Calm Calm 3.5 mph5.6 kmh 29.99 in1015.6 mb - 0.00 in0.0 mm 0.00 in0.0 mm
12:40 PM 28.7°F-1.8°C 25.3°F-3.7°C 87% Calm Calm 3.5 mph5.6 kmh 29.99 in1015.6 mb - 0.00 in0.0 mm 0.00 in0.0 mm
12:50 PM 28.8°F-1.8°C 25.4°F-3.7°C 87% 2.3 mph SW3.7 kmh SW 11.5 mph18.5 kmh 29.98 in1015.2 mb - 0.00 in0.0 mm 0.00 in0.0 mm
01:00 PM 28.9°F-1.7°C 25.5°F-3.6°C 87% 3.5 mph SW5.6 kmh SW 4.6 mph7.4 kmh 29.98 in1015.2 mb - 0.00 in0.0 mm 0.00 in0.0 mm
01:10 PM 29.0°F-1.7°C 25.6°F-3.6°C 87% 2.3 mph SSW3.7 kmh SSW 3.5 mph5.6 kmh 29.97 in1014.9 mb - 0.00 in0.0 mm 0.00 in0.0 mm
01:20 PM 29.1°F-1.6°C 25.7°F-3.5°C 87% 4.6 mph SW7.4 kmh SW 5.8 mph9.3 kmh 29.97 in1014.9 mb - 0.00 in0.0 mm 0.00 in0.0 mm
01:30 PM 29.2°F-1.6°C 25.8°F-3.4°C 87% 1.2 mph WSW1.9 kmh WSW 4.6 mph7.4 kmh 29.96 in1014.6 mb - 0.00 in0.0 mm 0.00 in0.0 mm
01:40 PM 29.4°F-1.4°C 26.0°F-3.3°C 87% 3.5 mph SW5.6 kmh SW 5.8 mph9.3 kmh 29.96 in1014.6 mb - 0.00 in0.0 mm 0.00 in0.0 mm
01:50 PM 29.6°F-1.3°C 26.2°F-3.2°C 87% 3.5 mph SW5.6 kmh SW 5.8 mph9.3 kmh 29.95 in1014.2 mb - 0.00 in0.0 mm 0.00 in0.0 mm
02:00 PM 29.8°F-1.2°C 26.4°F-3.1°C 87% 2.3 mph SW3.7 kmh SW 2.3 mph3.7 kmh 29.95 in1014.2 mb - 0.00 in0.0 mm 0.00 in0.0 mm
02:10 PM 30.0°F-1.1°C 26.3°F-3.2°C 86% 1.2 mph WNW1.9 kmh WNW 3.5 mph5.6 kmh 29.95 in1014.2 mb - 0.00 in0.0 mm 0.00 in0.0 mm
02:20 PM 30.2°F-1.0°C 26.5°F-3.1°C 86% 3.5 mph WSW5.6 kmh WSW 6.9 mph11.1 kmh 29.95 in1014.2 mb - 0.00 in0.0 mm 0.00 in0.0 mm
02:30 PM 30.4°F-0.9°C 26.4°F-3.1°C 85% 3.5 mph WSW5.6 kmh WSW 6.9 mph11.1 kmh 29.94 in1013.9 mb - 0.00 in0.0 mm 0.00 in0.0 mm
02:40 PM 30.6°F-0.8°C 26.6°F-3.0°C 85% 2.3 mph WSW3.7 kmh WSW 3.5 mph5.6 kmh 29.94 in1013.9 mb - 0.00 in0.0 mm 0.00 in0.0 mm
02:50 PM 30.8°F-0.7°C 26.8°F-2.9°C 85% 3.5 mph W5.6 kmh W 11.5 mph18.5 kmh 29.94 in1013.9 mb - 0.00 in0.0 mm 0.00 in0.0 mm
03:00 PM 31.0°F-0.6°C 26.7°F-2.9°C 84% 3.5 mph SW5.6 kmh SW 8.1 mph13.0 kmh 29.94 in1013.9 mb - 0.00 in0.0 mm 0.00 in0.0 mm
03:10 PM 31.2°F-0.4°C 26.9°F-2.8°C 84% 3.5 mph NW5.6 kmh NW 6.9 mph11.1 kmh 29.95 in1014.2 mb - 0.00 in0.0 mm 0.00 in0.0 mm
03:20 PM 31.3°F-0.4°C 27.0°F-2.8°C 84% 3.5 mph WSW5.6 kmh WSW 5.8 mph9.3 kmh 29.95 in1014.2 mb - 0.00 in0.0 mm 0.00 in0.0 mm
03:30 PM 31.4°F-0.3°C 26.8°F-2.9°C 83% 2.3 mph WNW3.7 kmh WNW 11.5 mph18.5 kmh 29.95 in1014.2 mb - 0.00 in0.0 mm 0.00 in0.0 mm
03:40 PM 31.5°F-0.3°C 26.9°F-2.8°C 83% Calm Calm -- 29.96 in1014.6 mb - 0.00 in0.0 mm 0.00 in0.0 mm
03:50 PM 31.5°F-0.3°C 26.6°F-3.0°C 82% 3.5 mph W5.6 kmh W 6.9 mph11.1 kmh 29.96 in1014.6 mb - 0.00 in0.0 mm 0.00 in0.0 mm
04:00 PM 31.5°F-0.3°C 26.6°F-3.0°C 82% 2.3 mph NW3.7 kmh NW 3.5 mph5.6 kmh 29.96 in1014.6 mb - 0.00 in0.0 mm 0.00 in0.0 mm
04:10 PM 31.3°F-0.4°C 26.1°F-3.3°C 81% 5.8 mph W9.3 kmh W 10.4 mph16.7 kmh 29.97 in1014.9 mb - 0.00 in0.0 mm 0.00 in0.0 mm
04:20 PM 31.0°F-0.6°C 25.6°F-3.6°C 80% 2.3 mph WNW3.7 kmh WNW 3.5 mph5.6 kmh 29.97 in1014.9 mb - 0.00 in0.0 mm 0.00 in0.0 mm
04:30 PM 30.9°F-0.6°C 25.7°F-3.5°C 81% 4.6 mph WNW7.4 kmh WNW 10.4 mph16.7 kmh 29.98 in1015.2 mb - 0.00 in0.0 mm 0.00 in0.0 mm
04:40 PM 30.5°F-0.8°C 25.1°F-3.8°C 80% 5.8 mph WNW9.3 kmh WNW 6.9 mph11.1 kmh 29.98 in1015.2 mb - 0.00 in0.0 mm 0.00 in0.0 mm
04:50 PM 30.2°F-1.0°C 24.5°F-4.2°C 79% 4.6 mph NW7.4 kmh NW 9.2 mph14.8 kmh 29.99 in1015.6 mb - 0.00 in0.0 mm 0.00 in0.0 mm
05:00 PM 29.8°F-1.2°C 24.4°F-4.2°C 80% 3.5 mph WNW5.6 kmh WNW 6.9 mph11.1 kmh 29.99 in1015.6 mb - 0.00 in0.0 mm 0.00 in0.0 mm
05:10 PM 29.6°F-1.3°C 24.2°F-4.3°C 80% 3.5 mph W5.6 kmh W 8.1 mph13.0 kmh 30.00 in1015.9 mb - 0.00 in0.0 mm 0.00 in0.0 mm
05:20 PM 29.4°F-1.4°C 23.7°F-4.6°C 79% 3.5 mph NW5.6 kmh NW 9.2 mph14.8 kmh 30.00 in1015.9 mb - 0.00 in0.0 mm 0.00 in0.0 mm
05:30 PM 29.3°F-1.5°C 23.9°F-4.5°C 80% 2.3 mph NW3.7 kmh NW 4.6 mph7.4 kmh 30.01 in1016.3 mb - 0.00 in0.0 mm 0.00 in0.0 mm
05:40 PM 29.0°F-1.7°C 23.3°F-4.8°C 79% 1.2 mph NNW1.9 kmh NNW 3.5 mph5.6 kmh 30.01 in1016.3 mb - 0.00 in0.0 mm 0.00 in0.0 mm
05:50 PM 28.9°F-1.7°C 23.2°F-4.9°C 79% 2.3 mph W3.7 kmh W 3.5 mph5.6 kmh 30.02 in1016.6 mb - 0.00 in0.0 mm 0.00 in0.0 mm
06:00 PM 28.7°F-1.8°C 23.0°F-5.0°C 79% 2.3 mph NW3.7 kmh NW 5.8 mph9.3 kmh 30.02 in1016.6 mb - 0.00 in0.0 mm 0.00 in0.0 mm
06:10 PM 28.7°F-1.8°C 23.3°F-4.8°C 80% Calm Calm 3.5 mph5.6 kmh 30.02 in1016.6 mb - 0.00 in0.0 mm 0.00 in0.0 mm
06:20 PM 28.6°F-1.9°C 23.2°F-4.9°C 80% 1.2 mph NW1.9 kmh NW 4.6 mph7.4 kmh 30.03 in1016.9 mb - 0.00 in0.0 mm 0.00 in0.0 mm
06:30 PM 28.5°F-1.9°C 23.1°F-4.9°C 80% Calm Calm 3.5 mph5.6 kmh 30.03 in1016.9 mb - 0.00 in0.0 mm 0.00 in0.0 mm
06:40 PM 28.5°F-1.9°C 23.1°F-4.9°C 80% 1.2 mph WNW1.9 kmh WNW 6.9 mph11.1 kmh 30.03 in1016.9 mb - 0.00 in0.0 mm 0.00 in0.0 mm
06:50 PM 28.5°F-1.9°C 23.1°F-4.9°C 80% Calm Calm 3.5 mph5.6 kmh 30.04 in1017.3 mb - 0.00 in0.0 mm 0.00 in0.0 mm
07:00 PM 28.5°F-1.9°C 23.1°F-4.9°C 80% 2.3 mph WNW3.7 kmh WNW 3.5 mph5.6 kmh 30.04 in1017.3 mb - 0.00 in0.0 mm 0.00 in0.0 mm
07:10 PM 28.6°F-1.9°C 22.9°F-5.1°C 79% 2.3 mph NW3.7 kmh NW 3.5 mph5.6 kmh 30.04 in1017.3 mb - 0.00 in0.0 mm 0.00 in0.0 mm
07:20 PM 28.6°F-1.9°C 22.6°F-5.2°C 78% 4.6 mph NW7.4 kmh NW 12.7 mph20.4 kmh 30.04 in1017.3 mb - 0.00 in0.0 mm 0.00 in0.0 mm
07:30 PM 28.7°F-1.8°C 22.4°F-5.3°C 77% 2.3 mph N3.7 kmh N 4.6 mph7.4 kmh 30.04 in1017.3 mb - 0.00 in0.0 mm 0.00 in0.0 mm
07:40 PM 28.7°F-1.8°C 22.4°F-5.3°C 77% 1.2 mph NW1.9 kmh NW 5.8 mph9.3 kmh 30.05 in1017.6 mb - 0.00 in0.0 mm 0.00 in0.0 mm
07:50 PM 28.8°F-1.8°C 22.2°F-5.4°C 76% 3.5 mph NW5.6 kmh NW 5.8 mph9.3 kmh 30.05 in1017.6 mb - 0.00 in0.0 mm 0.00 in0.0 mm
08:00 PM 28.8°F-1.8°C 21.9°F-5.6°C 75% 1.2 mph NW1.9 kmh NW 3.5 mph5.6 kmh 30.06 in1017.9 mb - 0.00 in0.0 mm 0.00 in0.0 mm
08:10 PM 28.9°F-1.7°C 22.0°F-5.6°C 75% 1.2 mph WNW1.9 kmh WNW 3.5 mph5.6 kmh 30.06 in1017.9 mb - 0.00 in0.0 mm 0.00 in0.0 mm
08:20 PM 28.9°F-1.7°C 21.7°F-5.7°C 74% 1.2 mph NW1.9 kmh NW 4.6 mph7.4 kmh 30.07 in1018.3 mb - 0.00 in0.0 mm 0.00 in0.0 mm
08:30 PM 28.9°F-1.7°C 21.0°F-6.1°C 72% 3.5 mph NW5.6 kmh NW 5.8 mph9.3 kmh 30.07 in1018.3 mb - 0.00 in0.0 mm 0.00 in0.0 mm
08:40 PM 28.8°F-1.8°C 20.9°F-6.2°C 72% 5.8 mph NW9.3 kmh NW 5.8 mph9.3 kmh 30.07 in1018.3 mb - 0.00 in0.0 mm 0.00 in0.0 mm
08:50 PM 28.7°F-1.8°C 20.5°F-6.4°C 71% 2.3 mph NNW3.7 kmh NNW 6.9 mph11.1 kmh 30.08 in1018.6 mb - 0.00 in0.0 mm 0.00 in0.0 mm
09:00 PM 28.6°F-1.9°C 20.1°F-6.6°C 70% 3.5 mph NW5.6 kmh NW 9.2 mph14.8 kmh 30.08 in1018.6 mb - 0.00 in0.0 mm 0.00 in0.0 mm
09:10 PM 28.2°F-2.1°C 19.3°F-7.1°C 69% 2.3 mph NNW3.7 kmh NNW 4.6 mph7.4 kmh 30.09 in1019.0 mb - 0.00 in0.0 mm 0.00 in0.0 mm
09:20 PM 27.8°F-2.3°C 18.9°F-7.3°C 69% 3.5 mph NW5.6 kmh NW 10.4 mph16.7 kmh 30.10 in1019.3 mb - 0.00 in0.0 mm 0.00 in0.0 mm
09:30 PM 27.2°F-2.7°C 18.0°F-7.8°C 68% 5.8 mph NW9.3 kmh NW 10.4 mph16.7 kmh 30.11 in1019.6 mb - 0.00 in0.0 mm 0.00 in0.0 mm
09:40 PM 26.6°F-3.0°C 17.5°F-8.1°C 68% 4.6 mph NNW7.4 kmh NNW 8.1 mph13.0 kmh 30.11 in1019.6 mb - 0.00 in0.0 mm 0.00 in0.0 mm
09:50 PM 26.0°F-3.3°C 16.9°F-8.4°C 68% 4.6 mph NNW7.4 kmh NNW 11.5 mph18.5 kmh 30.12 in1020.0 mb - 0.00 in0.0 mm 0.00 in0.0 mm
10:00 PM 25.4°F-3.7°C 16.6°F-8.6°C 69% 3.5 mph NW5.6 kmh NW 4.6 mph7.4 kmh 30.13 in1020.3 mb - 0.00 in0.0 mm 0.00 in0.0 mm
10:10 PM 24.9°F-3.9°C 16.5°F-8.6°C 70% 4.6 mph NNW7.4 kmh NNW 5.8 mph9.3 kmh 30.14 in1020.7 mb - 0.00 in0.0 mm 0.00 in0.0 mm
10:20 PM 24.6°F-4.1°C 16.2°F-8.8°C 70% Calm Calm -- 30.14 in1020.7 mb - 0.00 in0.0 mm 0.00 in0.0 mm
10:30 PM 24.3°F-4.3°C 16.2°F-8.8°C 71% 1.2 mph N1.9 kmh N 4.6 mph7.4 kmh 30.14 in1020.7 mb - 0.00 in0.0 mm 0.00 in0.0 mm
10:40 PM 24.0°F-4.4°C 16.0°F-8.9°C 71% 4.6 mph NW7.4 kmh NW 6.9 mph11.1 kmh 30.15 in1021.0 mb - 0.00 in0.0 mm 0.00 in0.0 mm
10:50 PM 23.7°F-4.6°C 15.7°F-9.1°C 71% 2.3 mph NW3.7 kmh NW 5.8 mph9.3 kmh 30.15 in1021.0 mb - 0.00 in0.0 mm 0.00 in0.0 mm
11:00 PM 23.4°F-4.8°C 15.4°F-9.2°C 71% 2.3 mph NW3.7 kmh NW 4.6 mph7.4 kmh 30.16 in1021.3 mb - 0.00 in0.0 mm 0.00 in0.0 mm
11:10 PM 22.9°F-5.1°C 14.9°F-9.5°C 71% 1.2 mph NW1.9 kmh NW 10.4 mph16.7 kmh 30.17 in1021.7 mb - 0.00 in0.0 mm 0.00 in0.0 mm
11:20 PM 22.3°F-5.4°C 14.3°F-9.8°C 71% 3.5 mph NNW5.6 kmh NNW 5.8 mph9.3 kmh 30.18 in1022.0 mb - 0.00 in0.0 mm 0.00 in0.0 mm
11:30 PM 21.8°F-5.7°C 14.2°F-9.9°C 72% 1.2 mph NNW1.9 kmh NNW 3.5 mph5.6 kmh 30.19 in1022.4 mb - 0.00 in0.0 mm 0.00 in0.0 mm
11:40 PM 21.6°F-5.8°C 13.6°F-10.2°C 71% 1.2 mph NW1.9 kmh NW 6.9 mph11.1 kmh 30.19 in1022.4 mb - 0.00 in0.0 mm 0.00 in0.0 mm
11:50 PM 21.1°F-6.1°C 12.8°F-10.7°C 70% 3.5 mph NW5.6 kmh NW 5.8 mph9.3 kmh 30.20 in1022.7 mb - 0.00 in0.0 mm 0.00 in0.0 mm